OAL792 LGTS-LGRP
Flight info
| Callsign | OAL792 |
|---|---|
| Flight time | N/A |
| Altitude | 31000 |
| Route | TSL L617 LEKPO UL617 SKP UN137 NEVRA DCT AKINA UL995 CODIC |
| Aircraft | A21N/M-SDE2E3FGHIRWXY/LB1 |
Departure
| Time | 2026-05-07 22:57 |
|---|---|
| Airport | Thessaloniki Macedonia International Airport (LGTS) |
Arrival
| Time | N/A |
|---|---|
| Airport | Rhodes International Airport "Diagoras" (LGRP) |
| Time | Latitude | Longitude | Altitude | Speed | Heading |
|---|---|---|---|---|---|
| 2026-05-07 22:37 | 40.52311 | 22.97577 | 31 ft | 0 kts | 44° |
| 2026-05-07 22:49 | 40.52302 | 22.97565 | 31 ft | 3 kts | 44° |
| 2026-05-07 22:49 | 40.52288 | 22.97548 | 31 ft | 3 kts | 44° |
| 2026-05-07 22:49 | 40.52275 | 22.97530 | 31 ft | 3 kts | 44° |
| 2026-05-07 22:49 | 40.52262 | 22.97513 | 31 ft | 3 kts | 44° |
| 2026-05-07 22:50 | 40.52248 | 22.97496 | 31 ft | 3 kts | 44° |
| 2026-05-07 22:50 | 40.52240 | 22.97485 | 31 ft | 0 kts | 44° |
| 2026-05-07 22:52 | 40.52242 | 22.97487 | 31 ft | 1 kts | 44° |
| 2026-05-07 22:53 | 40.52257 | 22.97488 | 31 ft | 3 kts | 345° |
| 2026-05-07 22:53 | 40.52277 | 22.97461 | 31 ft | 5 kts | 301° |
| 2026-05-07 22:53 | 40.52300 | 22.97410 | 31 ft | 8 kts | 301° |
| 2026-05-07 22:53 | 40.52338 | 22.97347 | 31 ft | 10 kts | 310° |
| 2026-05-07 22:54 | 40.52378 | 22.97263 | 31 ft | 12 kts | 275° |
| 2026-05-07 22:54 | 40.52402 | 22.97152 | 31 ft | 14 kts | 320° |
| 2026-05-07 22:54 | 40.52505 | 22.97114 | 31 ft | 16 kts | 347° |
| 2026-05-07 22:54 | 40.52621 | 22.97079 | 31 ft | 18 kts | 341° |
| 2026-05-07 22:55 | 40.52748 | 22.97030 | 31 ft | 20 kts | 345° |
| 2026-05-07 22:55 | 40.52888 | 22.96984 | 31 ft | 22 kts | 352° |
| 2026-05-07 22:55 | 40.53027 | 22.96947 | 31 ft | 21 kts | 346° |
| 2026-05-07 22:55 | 40.53063 | 22.96908 | 31 ft | 4 kts | 271° |
| 2026-05-07 22:56 | 40.53063 | 22.96906 | 31 ft | 0 kts | 270° |
| 2026-05-07 22:56 | 40.53063 | 22.96887 | 31 ft | 8 kts | 270° |
| 2026-05-07 22:56 | 40.53035 | 22.96807 | 31 ft | 11 kts | 223° |
| 2026-05-07 22:56 | 40.52967 | 22.96785 | 31 ft | 6 kts | 171° |
| 2026-05-07 22:57 | 40.52835 | 22.96823 | 33 ft | 52 kts | 167° |
| 2026-05-07 22:57 | 40.52206 | 22.97028 | 30 ft | 132 kts | 166° |
| 2026-05-07 22:57 | 40.51148 | 22.97340 | 404 ft | 157 kts | 168° |
| 2026-05-07 22:57 | 40.50064 | 22.97601 | 1285 ft | 161 kts | 172° |
| 2026-05-07 22:58 | 40.48934 | 22.97859 | 2097 ft | 168 kts | 166° |
| 2026-05-07 22:58 | 40.47815 | 22.98377 | 2876 ft | 171 kts | 158° |
| 2026-05-07 22:58 | 40.46646 | 22.98760 | 3495 ft | 181 kts | 172° |
| 2026-05-07 22:58 | 40.45349 | 22.99048 | 4031 ft | 197 kts | 170° |
| 2026-05-07 22:59 | 40.43960 | 22.99424 | 4613 ft | 211 kts | 169° |
| 2026-05-07 22:59 | 40.42478 | 22.99846 | 5165 ft | 224 kts | 168° |
| 2026-05-07 22:59 | 40.41449 | 23.00141 | 5522 ft | 234 kts | 168° |
| 2026-05-07 22:59 | 40.39794 | 23.00619 | 6006 ft | 254 kts | 168° |
| 2026-05-07 23:00 | 40.38009 | 23.01138 | 6575 ft | 270 kts | 168° |
| 2026-05-07 23:00 | 40.36153 | 23.01677 | 7321 ft | 276 kts | 168° |
| 2026-05-07 23:00 | 40.34275 | 23.02296 | 8144 ft | 281 kts | 159° |
| 2026-05-07 23:00 | 40.32636 | 23.03688 | 8955 ft | 286 kts | 135° |
| 2026-05-07 23:01 | 40.31410 | 23.05768 | 9774 ft | 290 kts | 129° |
| 2026-05-07 23:01 | 40.29839 | 23.07429 | 10380 ft | 298 kts | 155° |
| 2026-05-07 23:01 | 40.27849 | 23.08457 | 10719 ft | 318 kts | 162° |
| 2026-05-07 23:01 | 40.25686 | 23.09426 | 11003 ft | 339 kts | 162° |
| 2026-05-07 23:02 | 40.23395 | 23.10464 | 11278 ft | 359 kts | 161° |
| 2026-05-07 23:02 | 40.20991 | 23.11582 | 11715 ft | 372 kts | 161° |
| 2026-05-07 23:02 | 40.18539 | 23.12736 | 12390 ft | 377 kts | 161° |
| 2026-05-07 23:02 | 40.16061 | 23.13912 | 13116 ft | 382 kts | 161° |
| 2026-05-07 23:03 | 40.13545 | 23.15108 | 13815 ft | 387 kts | 161° |
| 2026-05-07 23:03 | 40.10998 | 23.16318 | 14445 ft | 392 kts | 161° |
| 2026-05-07 23:03 | 40.08426 | 23.17555 | 15041 ft | 397 kts | 161° |
| 2026-05-07 23:03 | 40.05827 | 23.18844 | 15638 ft | 402 kts | 161° |
| 2026-05-07 23:04 | 40.03189 | 23.20157 | 16235 ft | 407 kts | 161° |
| 2026-05-07 23:04 | 40.00538 | 23.21473 | 16828 ft | 413 kts | 161° |
| 2026-05-07 23:04 | 39.97835 | 23.22804 | 17417 ft | 418 kts | 161° |
| 2026-05-07 23:04 | 39.95099 | 23.24150 | 18009 ft | 423 kts | 161° |
| 2026-05-07 23:05 | 39.92330 | 23.25514 | 18564 ft | 428 kts | 161° |
| 2026-05-07 23:05 | 39.89532 | 23.26892 | 19094 ft | 432 kts | 161° |
| 2026-05-07 23:05 | 39.86750 | 23.28258 | 19615 ft | 435 kts | 162° |
| 2026-05-07 23:05 | 39.83908 | 23.29647 | 20162 ft | 438 kts | 162° |
| 2026-05-07 23:06 | 39.81001 | 23.31066 | 20694 ft | 442 kts | 162° |
| 2026-05-07 23:06 | 39.78114 | 23.32478 | 21209 ft | 445 kts | 162° |
| 2026-05-07 23:06 | 39.75243 | 23.33882 | 21698 ft | 449 kts | 162° |
| 2026-05-07 23:06 | 39.72310 | 23.35314 | 22213 ft | 452 kts | 162° |
| 2026-05-07 23:07 | 39.69354 | 23.36755 | 22706 ft | 455 kts | 162° |
| 2026-05-07 23:07 | 39.66378 | 23.38204 | 23197 ft | 459 kts | 162° |
| 2026-05-07 23:07 | 39.63382 | 23.39663 | 23678 ft | 462 kts | 162° |
| 2026-05-07 23:07 | 39.60364 | 23.41130 | 24096 ft | 465 kts | 162° |
| 2026-05-07 23:08 | 39.57327 | 23.42607 | 24502 ft | 467 kts | 162° |
| 2026-05-07 23:08 | 39.54274 | 23.44090 | 24907 ft | 470 kts | 162° |
| 2026-05-07 23:08 | 39.51200 | 23.45582 | 25312 ft | 473 kts | 162° |
| 2026-05-07 23:08 | 39.48113 | 23.47079 | 25715 ft | 475 kts | 162° |
| 2026-05-07 23:09 | 39.45003 | 23.48586 | 26115 ft | 478 kts | 162° |
| 2026-05-07 23:09 | 39.41880 | 23.50095 | 26497 ft | 481 kts | 162° |
| 2026-05-07 23:09 | 39.38750 | 23.51610 | 26982 ft | 480 kts | 162° |
| 2026-05-07 23:09 | 39.35622 | 23.53128 | 27492 ft | 479 kts | 161° |
| 2026-05-07 23:10 | 39.32501 | 23.54639 | 28010 ft | 478 kts | 162° |
| 2026-05-07 23:10 | 39.29387 | 23.56144 | 28516 ft | 477 kts | 161° |
| 2026-05-07 23:10 | 39.26279 | 23.57642 | 29013 ft | 476 kts | 162° |
| 2026-05-07 23:10 | 39.23173 | 23.59133 | 29501 ft | 476 kts | 162° |
| 2026-05-07 23:11 | 39.20083 | 23.60633 | 29972 ft | 475 kts | 160° |
| 2026-05-07 23:11 | 39.17118 | 23.62525 | 30379 ft | 477 kts | 149° |
| 2026-05-07 23:11 | 39.14383 | 23.64960 | 30737 ft | 478 kts | 145° |
| 2026-05-07 23:11 | 39.11719 | 23.67518 | 31041 ft | 479 kts | 144° |
| 2026-05-07 23:12 | 39.09055 | 23.70086 | 31140 ft | 477 kts | 144° |
| 2026-05-07 23:12 | 39.03729 | 23.75164 | 31127 ft | 476 kts | 144° |
| 2026-05-07 23:13 | 38.98381 | 23.80210 | 31119 ft | 477 kts | 145° |
| 2026-05-07 23:13 | 38.93031 | 23.85248 | 31119 ft | 477 kts | 145° |
| 2026-05-07 23:14 | 38.87674 | 23.90287 | 31121 ft | 477 kts | 144° |
| 2026-05-07 23:14 | 38.82325 | 23.95306 | 31115 ft | 477 kts | 145° |
| 2026-05-07 23:15 | 38.76966 | 24.00327 | 31119 ft | 477 kts | 145° |
| 2026-05-07 23:15 | 38.71598 | 24.05348 | 31118 ft | 478 kts | 145° |
| 2026-05-07 23:16 | 38.66227 | 24.10361 | 31126 ft | 478 kts | 145° |
| 2026-05-07 23:16 | 38.60844 | 24.15374 | 31118 ft | 479 kts | 145° |
| 2026-05-07 23:17 | 38.55447 | 24.20391 | 31125 ft | 480 kts | 145° |
| 2026-05-07 23:17 | 38.50046 | 24.25396 | 31120 ft | 480 kts | 145° |
| 2026-05-07 23:18 | 38.44636 | 24.30403 | 31128 ft | 481 kts | 145° |
| 2026-05-07 23:18 | 38.39211 | 24.35419 | 31126 ft | 482 kts | 146° |
| 2026-05-07 23:19 | 38.33782 | 24.40427 | 31132 ft | 482 kts | 146° |
| 2026-05-07 23:19 | 38.28351 | 24.45421 | 31126 ft | 482 kts | 146° |
| 2026-05-07 23:20 | 38.22906 | 24.50423 | 31133 ft | 483 kts | 146° |
| 2026-05-07 23:20 | 38.17489 | 24.55482 | 31132 ft | 484 kts | 141° |
| 2026-05-07 23:21 | 38.12834 | 24.61695 | 31140 ft | 486 kts | 131° |
| 2026-05-07 23:21 | 38.08448 | 24.68166 | 31138 ft | 487 kts | 131° |
| 2026-05-07 23:22 | 38.03990 | 24.74657 | 31139 ft | 488 kts | 131° |
| 2026-05-07 23:22 | 37.99521 | 24.81131 | 31138 ft | 489 kts | 131° |
| 2026-05-07 23:23 | 37.95035 | 24.87622 | 31140 ft | 489 kts | 132° |
| 2026-05-07 23:23 | 37.90545 | 24.94100 | 31137 ft | 489 kts | 132° |
| 2026-05-07 23:24 | 37.86049 | 25.00573 | 31145 ft | 490 kts | 132° |
| 2026-05-07 23:24 | 37.83786 | 25.03828 | 30978 ft | 496 kts | 133° |
| 2026-05-07 23:24 | 37.81491 | 25.07127 | 31043 ft | 503 kts | 133° |
| 2026-05-07 23:25 | 37.76791 | 25.13865 | 31139 ft | 518 kts | 133° |
| 2026-05-07 23:25 | 37.72002 | 25.20716 | 31150 ft | 520 kts | 133° |
| 2026-05-07 23:26 | 37.70222 | 25.23263 | 31147 ft | 520 kts | 133° |
| 2026-05-07 23:26 | 37.65488 | 25.30036 | 31143 ft | 519 kts | 133° |
| 2026-05-07 23:27 | 37.58307 | 25.40279 | 31146 ft | 519 kts | 133° |
| 2026-05-07 23:27 | 37.53508 | 25.47095 | 31143 ft | 520 kts | 133° |
| 2026-05-07 23:28 | 37.48705 | 25.53896 | 31147 ft | 520 kts | 133° |
| 2026-05-07 23:28 | 37.43889 | 25.60696 | 31144 ft | 520 kts | 133° |
| 2026-05-07 23:29 | 37.39082 | 25.67483 | 31150 ft | 520 kts | 133° |
| 2026-05-07 23:29 | 37.34256 | 25.74267 | 31152 ft | 521 kts | 133° |
| 2026-05-07 23:30 | 37.29430 | 25.81055 | 31154 ft | 521 kts | 133° |
| 2026-05-07 23:30 | 37.24597 | 25.87821 | 31154 ft | 521 kts | 133° |
| 2026-05-07 23:31 | 37.19756 | 25.94592 | 31152 ft | 521 kts | 133° |
| 2026-05-07 23:31 | 37.14924 | 26.01344 | 31155 ft | 521 kts | 133° |
| 2026-05-07 23:32 | 37.10085 | 26.08101 | 31157 ft | 521 kts | 133° |
| 2026-05-07 23:32 | 37.05241 | 26.14839 | 31156 ft | 520 kts | 133° |
| 2026-05-07 23:33 | 37.00394 | 26.21559 | 31152 ft | 520 kts | 132° |
| 2026-05-07 23:33 | 36.96498 | 26.29123 | 31159 ft | 517 kts | 111° |
| 2026-05-07 23:34 | 36.93726 | 26.37410 | 31167 ft | 516 kts | 110° |
| 2026-05-07 23:34 | 36.90946 | 26.45682 | 31160 ft | 516 kts | 110° |
| 2026-05-07 23:35 | 36.88136 | 26.53945 | 31161 ft | 517 kts | 110° |
| 2026-05-07 23:35 | 36.85307 | 26.62192 | 31159 ft | 517 kts | 110° |
| 2026-05-07 23:36 | 36.82469 | 26.70438 | 31161 ft | 517 kts | 110° |
| 2026-05-07 23:36 | 36.79632 | 26.78670 | 31164 ft | 517 kts | 110° |
| 2026-05-07 23:37 | 36.76788 | 26.86896 | 31168 ft | 516 kts | 110° |
| 2026-05-07 23:37 | 36.73963 | 26.95060 | 31170 ft | 516 kts | 110° |
| 2026-05-07 23:38 | 36.71108 | 27.03275 | 31171 ft | 516 kts | 110° |
| 2026-05-07 23:38 | 36.68247 | 27.11489 | 31172 ft | 517 kts | 110° |
| 2026-05-07 23:39 | 36.65392 | 27.19689 | 31166 ft | 516 kts | 110° |
| 2026-05-07 23:39 | 36.62511 | 27.27933 | 31165 ft | 515 kts | 110° |
| 2026-05-07 23:40 | 36.59641 | 27.36108 | 31160 ft | 516 kts | 110° |
| 2026-05-07 23:40 | 36.56762 | 27.44278 | 31152 ft | 515 kts | 110° |
| 2026-05-07 23:41 | 36.53882 | 27.52442 | 31149 ft | 516 kts | 110° |
| 2026-05-07 23:41 | 36.51011 | 27.60546 | 31146 ft | 516 kts | 110° |
| 2026-05-07 23:42 | 36.48096 | 27.68761 | 31143 ft | 516 kts | 110° |
| 2026-05-07 23:42 | 36.45877 | 27.77078 | 31140 ft | 504 kts | 94° |
| 2026-05-07 23:43 | 36.44829 | 27.85672 | 31147 ft | 504 kts | 93° |
| 2026-05-07 23:43 | 36.43064 | 27.94137 | 31135 ft | 514 kts | 112° |
| 2026-05-07 23:44 | 36.39349 | 28.01751 | 31146 ft | 515 kts | 118° |
| 2026-05-07 23:44 | 36.36581 | 28.08268 | 31146 ft | 512 kts | 110° |
| 2026-05-07 23:45 | 36.33023 | 28.17619 | 31145 ft | 515 kts | 117° |
| 2026-05-07 23:45 | 36.30258 | 28.24150 | 31140 ft | 514 kts | 113° |
| 2026-05-07 23:46 | 36.28878 | 28.28209 | 31132 ft | 507 kts | 101° |
| 2026-05-07 23:46 | 36.28313 | 28.32452 | 31133 ft | 493 kts | 85° |
| 2026-05-07 23:46 | 36.28604 | 28.36613 | 31148 ft | 481 kts | 72° |
| 2026-05-07 23:46 | 36.29252 | 28.40670 | 31150 ft | 476 kts | 67° |
| 2026-05-07 23:47 | 36.30470 | 28.44389 | 31139 ft | 458 kts | 51° |
| 2026-05-07 23:47 | 36.32386 | 28.47416 | 31144 ft | 439 kts | 34° |
| 2026-05-07 23:47 | 36.34813 | 28.49570 | 31148 ft | 424 kts | 21° |
| 2026-05-07 23:47 | 36.37342 | 28.51489 | 31148 ft | 427 kts | 24° |
| 2026-05-07 23:48 | 36.42320 | 28.55502 | 31145 ft | 427 kts | 25° |
| 2026-05-07 23:48 | 36.47291 | 28.59549 | 31152 ft | 427 kts | 25° |
| 2026-05-07 23:49 | 36.52251 | 28.63583 | 31160 ft | 426 kts | 25° |
| 2026-05-07 23:49 | 36.57221 | 28.67620 | 31168 ft | 426 kts | 25° |
| 2026-05-07 23:50 | 36.62189 | 28.71652 | 31173 ft | 426 kts | 25° |
| 2026-05-07 23:50 | 36.67163 | 28.75686 | 31175 ft | 428 kts | 25° |
| 2026-05-07 23:51 | 36.72160 | 28.79731 | 31178 ft | 428 kts | 25° |
| 2026-05-07 23:51 | 36.77159 | 28.83777 | 31174 ft | 429 kts | 25° |
| 2026-05-07 23:52 | 36.82170 | 28.87829 | 31176 ft | 429 kts | 25° |
| 2026-05-07 23:52 | 36.87181 | 28.91876 | 31177 ft | 429 kts | 25° |
| 2026-05-07 23:53 | 36.92200 | 28.95933 | 31186 ft | 430 kts | 25° |
| 2026-05-07 23:53 | 36.97226 | 28.99991 | 31169 ft | 429 kts | 25° |
| 2026-05-07 23:54 | 37.02248 | 29.04043 | 31205 ft | 430 kts | 25° |
| 2026-05-07 23:54 | 37.07283 | 29.08111 | 31202 ft | 430 kts | 25° |
| 2026-05-07 23:55 | 37.12324 | 29.12172 | 31229 ft | 432 kts | 25° |
| 2026-05-07 23:55 | 37.17359 | 29.16210 | 31231 ft | 433 kts | 25° |
| 2026-05-07 23:56 | 37.22472 | 29.20293 | 31237 ft | 432 kts | 25° |
| 2026-05-07 23:56 | 37.27548 | 29.24322 | 31245 ft | 434 kts | 25° |
| 2026-05-07 23:57 | 37.32681 | 29.28361 | 31238 ft | 435 kts | 25° |
| 2026-05-07 23:57 | 37.37791 | 29.32354 | 31236 ft | 436 kts | 25° |
| 2026-05-07 23:58 | 37.42968 | 29.36361 | 31235 ft | 437 kts | 25° |
| 2026-05-07 23:58 | 37.48172 | 29.40354 | 31234 ft | 439 kts | 25° |
| 2026-05-07 23:59 | 37.53389 | 29.44326 | 31231 ft | 439 kts | 25° |
| 2026-05-07 23:59 | 37.58566 | 29.48240 | 31227 ft | 440 kts | 25° |
| 2026-05-08 00:00 | 37.63894 | 29.52247 | 31223 ft | 441 kts | 25° |
| 2026-05-08 00:00 | 37.69170 | 29.56195 | 31229 ft | 441 kts | 25° |
| 2026-05-08 00:01 | 37.74462 | 29.60139 | 31234 ft | 442 kts | 25° |
| 2026-05-08 00:01 | 37.79769 | 29.64066 | 31233 ft | 442 kts | 25° |
| 2026-05-08 00:02 | 37.85093 | 29.67980 | 31232 ft | 443 kts | 25° |
| 2026-05-08 00:02 | 37.90439 | 29.71885 | 31228 ft | 444 kts | 25° |
| 2026-05-08 00:03 | 37.95799 | 29.75786 | 31226 ft | 445 kts | 25° |
| 2026-05-08 00:03 | 38.01167 | 29.79682 | 31227 ft | 445 kts | 25° |
| 2026-05-08 00:04 | 38.06529 | 29.83565 | 31229 ft | 445 kts | 25° |
| 2026-05-08 00:04 | 38.11924 | 29.87453 | 31224 ft | 446 kts | 25° |
| 2026-05-08 00:05 | 38.17323 | 29.91317 | 31226 ft | 446 kts | 25° |
| 2026-05-08 00:05 | 38.22741 | 29.95168 | 31233 ft | 446 kts | 25° |
| 2026-05-08 00:06 | 38.28152 | 29.98997 | 31236 ft | 446 kts | 25° |
| 2026-05-08 00:06 | 38.33599 | 30.02839 | 31235 ft | 447 kts | 25° |
| 2026-05-08 00:07 | 38.39044 | 30.06671 | 31241 ft | 447 kts | 25° |
| 2026-05-08 00:07 | 38.44491 | 30.10500 | 31245 ft | 447 kts | 25° |
| 2026-05-08 00:08 | 38.49934 | 30.14330 | 31242 ft | 447 kts | 25° |
| 2026-05-08 00:08 | 38.55341 | 30.18138 | 31243 ft | 446 kts | 25° |
| 2026-05-08 00:09 | 38.60805 | 30.21989 | 31248 ft | 446 kts | 25° |
| 2026-05-08 00:09 | 38.66227 | 30.25817 | 31251 ft | 444 kts | 25° |
| 2026-05-08 00:10 | 38.71597 | 30.29618 | 31255 ft | 444 kts | 25° |
| 2026-05-08 00:10 | 38.77006 | 30.33457 | 31260 ft | 444 kts | 25° |
| 2026-05-08 00:11 | 38.82405 | 30.37301 | 31258 ft | 444 kts | 25° |
| 2026-05-08 00:11 | 38.87800 | 30.41152 | 31253 ft | 444 kts | 25° |
| 2026-05-08 00:12 | 38.93228 | 30.45032 | 31258 ft | 444 kts | 25° |
| 2026-05-08 00:12 | 38.98626 | 30.48896 | 31261 ft | 444 kts | 25° |
| 2026-05-08 00:13 | 39.04020 | 30.52767 | 31252 ft | 444 kts | 25° |
| 2026-05-08 00:13 | 39.09404 | 30.56639 | 31246 ft | 444 kts | 25° |
| 2026-05-08 00:14 | 39.14778 | 30.60511 | 31251 ft | 443 kts | 25° |
| 2026-05-08 00:14 | 39.20164 | 30.64396 | 31251 ft | 443 kts | 25° |
| 2026-05-08 00:15 | 39.25505 | 30.68262 | 31257 ft | 443 kts | 25° |
| 2026-05-08 00:15 | 39.30875 | 30.72154 | 31251 ft | 443 kts | 25° |
| 2026-05-08 00:16 | 39.36241 | 30.76050 | 31254 ft | 442 kts | 25° |
| 2026-05-08 00:16 | 39.41590 | 30.79945 | 31252 ft | 442 kts | 25° |
| 2026-05-08 00:17 | 39.46947 | 30.83856 | 31253 ft | 441 kts | 25° |
| 2026-05-08 00:17 | 39.52287 | 30.87765 | 31251 ft | 441 kts | 25° |
| 2026-05-08 00:18 | 39.57622 | 30.91683 | 31248 ft | 440 kts | 25° |
| 2026-05-08 00:18 | 39.62946 | 30.95606 | 31238 ft | 440 kts | 25° |
| 2026-05-08 00:19 | 39.68255 | 30.99536 | 31233 ft | 439 kts | 25° |
| 2026-05-08 00:19 | 39.73561 | 31.03478 | 31231 ft | 439 kts | 25° |
| 2026-05-08 00:20 | 39.78829 | 31.07409 | 31227 ft | 438 kts | 25° |
| 2026-05-08 00:20 | 39.84131 | 31.11378 | 31225 ft | 438 kts | 25° |
| 2026-05-08 00:21 | 39.89405 | 31.15341 | 31224 ft | 438 kts | 25° |
| 2026-05-08 00:21 | 39.94678 | 31.19313 | 31224 ft | 437 kts | 25° |
| 2026-05-08 00:22 | 39.99941 | 31.23288 | 31221 ft | 437 kts | 25° |
| 2026-05-08 00:22 | 40.05194 | 31.27265 | 31222 ft | 437 kts | 25° |
| 2026-05-08 00:23 | 40.10430 | 31.31242 | 31224 ft | 436 kts | 25° |
| 2026-05-08 00:23 | 40.15691 | 31.35238 | 31213 ft | 436 kts | 25° |
| 2026-05-08 00:24 | 40.20915 | 31.39217 | 31211 ft | 435 kts | 25° |
| 2026-05-08 00:24 | 40.26135 | 31.43206 | 31218 ft | 434 kts | 26° |
| 2026-05-08 00:25 | 40.31347 | 31.47198 | 31224 ft | 434 kts | 25° |
| 2026-05-08 00:25 | 40.36556 | 31.51197 | 31227 ft | 433 kts | 26° |
| 2026-05-08 00:26 | 40.41748 | 31.55192 | 31223 ft | 433 kts | 26° |